sensor_id;sensor_type;location;lat;lon;timestamp;pressure;altitude;pressure_sealevel;temperature;humidity
70248;BME280;57641;51.416;5.506;2024-03-23T00:55:23;101207.91;;;11.93;64.46
70248;BME280;57641;51.416;5.506;2024-03-23T00:57:49;101208.53;;;11.59;65.82
70248;BME280;57641;51.416;5.506;2024-03-23T01:00:15;101201.59;;;11.66;65.02
70248;BME280;57641;51.416;5.506;2024-03-23T01:02:41;101199.31;;;11.71;65.47
70248;BME280;57641;51.416;5.506;2024-03-23T01:05:06;101204.38;;;11.74;65.14
70248;BME280;57641;51.416;5.506;2024-03-23T01:07:32;101197.38;;;11.73;65.20
70248;BME280;57641;51.416;5.506;2024-03-23T01:09:57;101196.25;;;11.66;63.96
70248;BME280;57641;51.416;5.506;2024-03-23T01:12:22;101193.59;;;11.66;64.33
70248;BME280;57641;51.416;5.506;2024-03-23T01:14:48;101190.97;;;11.84;64.36
70248;BME280;57641;51.416;5.506;2024-03-23T01:17:13;101185.28;;;11.87;63.45
70248;BME280;57641;51.416;5.506;2024-03-23T01:19:39;101176.16;;;11.90;63.72
70248;BME280;57641;51.416;5.506;2024-03-23T01:22:07;101174.50;;;11.61;64.04
70248;BME280;57641;51.416;5.506;2024-03-23T01:24:32;101177.47;;;11.58;64.28
70248;BME280;57641;51.416;5.506;2024-03-23T01:26:58;101178.47;;;11.57;64.21
70248;BME280;57641;51.416;5.506;2024-03-23T01:29:23;101176.53;;;11.77;63.72
70248;BME280;57641;51.416;5.506;2024-03-23T01:31:49;101180.00;;;11.60;64.63
70248;BME280;57641;51.416;5.506;2024-03-23T01:34:14;101175.19;;;11.63;63.79
70248;BME280;57641;51.416;5.506;2024-03-23T01:36:40;101182.84;;;11.76;64.07
70248;BME280;57641;51.416;5.506;2024-03-23T01:39:05;101176.13;;;11.72;63.64
70248;BME280;57641;51.416;5.506;2024-03-23T01:41:30;101173.34;;;11.64;63.45
70248;BME280;57641;51.416;5.506;2024-03-23T01:43:56;101179.53;;;11.64;64.25
70248;BME280;57641;51.416;5.506;2024-03-23T01:46:22;101191.84;;;11.75;63.58
70248;BME280;57641;51.416;5.506;2024-03-23T01:48:47;101183.19;;;11.73;62.98
70248;BME280;57641;51.416;5.506;2024-03-23T01:51:14;101164.75;;;11.52;63.15
70248;BME280;57641;51.416;5.506;2024-03-23T01:53:39;101164.50;;;11.63;63.29
70248;BME280;57641;51.416;5.506;2024-03-23T01:56:05;101160.00;;;11.64;63.73
70248;BME280;57641;51.416;5.506;2024-03-23T01:58:31;101160.38;;;11.69;62.82
70248;BME280;57641;51.416;5.506;2024-03-23T02:00:57;101166.63;;;11.60;63.03
70248;BME280;57641;51.416;5.506;2024-03-23T02:03:24;101176.09;;;11.36;63.17
70248;BME280;57641;51.416;5.506;2024-03-23T02:05:50;101179.56;;;11.37;63.80
70248;BME280;57641;51.416;5.506;2024-03-23T02:08:21;101182.41;;;11.53;63.76
70248;BME280;57641;51.416;5.506;2024-03-23T02:10:50;101185.09;;;11.53;63.41
70248;BME280;57641;51.416;5.506;2024-03-23T02:13:17;101192.78;;;11.11;64.25
70248;BME280;57641;51.416;5.506;2024-03-23T02:15:43;101198.19;;;11.29;64.34
70248;BME280;57641;51.416;5.506;2024-03-23T02:18:10;101207.63;;;11.23;64.03
70248;BME280;57641;51.416;5.506;2024-03-23T02:20:36;101208.03;;;11.28;64.84
70248;BME280;57641;51.416;5.506;2024-03-23T02:23:02;101194.28;;;11.23;64.67
70248;BME280;57641;51.416;5.506;2024-03-23T02:25:27;101196.41;;;10.92;64.60
70248;BME280;57641;51.416;5.506;2024-03-23T02:27:52;101186.81;;;10.72;66.25
70248;BME280;57641;51.416;5.506;2024-03-23T02:30:21;101180.50;;;10.64;65.41
70248;BME280;57641;51.416;5.506;2024-03-23T02:32:46;101164.88;;;10.12;67.44
70248;BME280;57641;51.416;5.506;2024-03-23T02:35:12;101153.25;;;10.23;66.97
70248;BME280;57641;51.416;5.506;2024-03-23T02:37:37;101146.75;;;10.45;66.41
70248;BME280;57641;51.416;5.506;2024-03-23T02:40:03;101131.88;;;10.79;66.01
70248;BME280;57641;51.416;5.506;2024-03-23T02:42:29;101134.41;;;10.81;65.34
70248;BME280;57641;51.416;5.506;2024-03-23T02:44:54;101146.09;;;10.70;65.18
70248;BME280;57641;51.416;5.506;2024-03-23T02:47:20;101150.22;;;10.55;65.68
70248;BME280;57641;51.416;5.506;2024-03-23T02:49:45;101141.97;;;10.85;66.05
70248;BME280;57641;51.416;5.506;2024-03-23T02:52:10;101142.06;;;10.93;65.83
70248;BME280;57641;51.416;5.506;2024-03-23T02:54:36;101141.88;;;10.77;65.20
70248;BME280;57641;51.416;5.506;2024-03-23T02:57:02;101134.59;;;10.70;66.34
70248;BME280;57641;51.416;5.506;2024-03-23T02:59:27;101127.81;;;10.75;65.75
70248;BME280;57641;51.416;5.506;2024-03-23T03:01:53;101136.63;;;10.85;65.63
70248;BME280;57641;51.416;5.506;2024-03-23T03:04:19;101133.28;;;10.83;65.65
70248;BME280;57641;51.416;5.506;2024-03-23T03:06:47;101138.34;;;10.77;65.15
70248;BME280;57641;51.416;5.506;2024-03-23T03:09:13;101134.75;;;10.95;65.66
70248;BME280;57641;51.416;5.506;2024-03-23T03:11:38;101136.56;;;10.95;64.97
70248;BME280;57641;51.416;5.506;2024-03-23T03:14:04;101139.47;;;10.84;63.83
70248;BME280;57641;51.416;5.506;2024-03-23T03:16:32;101141.22;;;10.93;64.94
70248;BME280;57641;51.416;5.506;2024-03-23T03:18:58;101144.59;;;10.58;66.39
70248;BME280;57641;51.416;5.506;2024-03-23T03:21:23;101142.84;;;10.76;65.07
70248;BME280;57641;51.416;5.506;2024-03-23T03:23:49;101142.66;;;10.50;65.53
70248;BME280;57641;51.416;5.506;2024-03-23T03:26:16;101141.22;;;10.66;65.49
70248;BME280;57641;51.416;5.506;2024-03-23T03:28:42;101132.50;;;10.64;64.71
70248;BME280;57641;51.416;5.506;2024-03-23T03:31:09;101139.88;;;10.79;65.34
70248;BME280;57641;51.416;5.506;2024-03-23T03:33:34;101142.72;;;10.68;65.12
70248;BME280;57641;51.416;5.506;2024-03-23T03:36:00;101136.63;;;10.48;65.04
70248;BME280;57641;51.416;5.506;2024-03-23T03:38:25;101142.72;;;10.31;66.47
70248;BME280;57641;51.416;5.506;2024-03-23T03:40:51;101136.97;;;10.73;65.02
70248;BME280;57641;51.416;5.506;2024-03-23T03:43:18;101138.28;;;10.59;65.51
70248;BME280;57641;51.416;5.506;2024-03-23T03:45:51;101134.38;;;10.53;64.84
70248;BME280;57641;51.416;5.506;2024-03-23T03:48:17;101140.16;;;10.49;65.35
70248;BME280;57641;51.416;5.506;2024-03-23T03:50:42;101138.50;;;10.38;64.50
70248;BME280;57641;51.416;5.506;2024-03-23T03:53:07;101125.13;;;10.48;64.62
70248;BME280;57641;51.416;5.506;2024-03-23T03:55:33;101119.09;;;10.55;63.99
70248;BME280;57641;51.416;5.506;2024-03-23T03:57:58;101119.09;;;10.55;64.87
70248;BME280;57641;51.416;5.506;2024-03-23T04:00:24;101120.81;;;10.37;64.99
70248;BME280;57641;51.416;5.506;2024-03-23T04:02:49;101122.53;;;10.29;64.68
70248;BME280;57641;51.416;5.506;2024-03-23T04:05:14;101127.28;;;10.35;64.78
70248;BME280;57641;51.416;5.506;2024-03-23T04:07:40;101128.97;;;10.36;64.82
70248;BME280;57641;51.416;5.506;2024-03-23T04:10:06;101132.22;;;10.30;65.60
70248;BME280;57641;51.416;5.506;2024-03-23T04:12:34;101128.97;;;10.26;65.31
70248;BME280;57641;51.416;5.506;2024-03-23T04:15:00;101134.03;;;10.29;64.63
70248;BME280;57641;51.416;5.506;2024-03-23T04:17:26;101132.06;;;10.41;64.33
70248;BME280;57641;51.416;5.506;2024-03-23T04:19:56;101127.97;;;10.37;64.11
70248;BME280;57641;51.416;5.506;2024-03-23T04:22:22;101123.09;;;10.23;65.09
70248;BME280;57641;51.416;5.506;2024-03-23T04:24:49;101130.84;;;10.26;64.69
70248;BME280;57641;51.416;5.506;2024-03-23T04:27:14;101128.44;;;10.13;65.54
70248;BME280;57641;51.416;5.506;2024-03-23T04:29:40;101133.63;;;10.05;65.16
70248;BME280;57641;51.416;5.506;2024-03-23T04:32:05;101130.13;;;10.24;64.73
70248;BME280;57641;51.416;5.506;2024-03-23T04:34:31;101128.56;;;10.21;64.86
70248;BME280;57641;51.416;5.506;2024-03-23T04:36:58;101124.09;;;10.02;66.07
70248;BME280;57641;51.416;5.506;2024-03-23T04:39:24;101128.28;;;10.05;65.60
70248;BME280;57641;51.416;5.506;2024-03-23T04:41:49;101122.97;;;10.05;65.54
70248;BME280;57641;51.416;5.506;2024-03-23T04:44:15;101126.78;;;9.93;65.45
70248;BME280;57641;51.416;5.506;2024-03-23T04:46:40;101127.19;;;9.98;65.24
70248;BME280;57641;51.416;5.506;2024-03-23T04:49:06;101133.91;;;10.11;64.46
70248;BME280;57641;51.416;5.506;2024-03-23T04:51:36;101131.28;;;9.83;65.95
70248;BME280;57641;51.416;5.506;2024-03-23T04:54:05;101130.69;;;9.89;66.26
70248;BME280;57641;51.416;5.506;2024-03-23T04:56:31;101125.09;;;10.01;65.36
70248;BME280;57641;51.416;5.506;2024-03-23T04:58:57;101130.28;;;9.84;65.40
70248;BME280;57641;51.416;5.506;2024-03-23T05:01:27;101127.06;;;9.80;66.32
70248;BME280;57641;51.416;5.506;2024-03-23T05:03:53;101133.25;;;9.71;65.96
70248;BME280;57641;51.416;5.506;2024-03-23T05:06:18;101131.97;;;9.75;65.45
70248;BME280;57641;51.416;5.506;2024-03-23T05:08:45;101135.34;;;9.77;66.25
70248;BME280;57641;51.416;5.506;2024-03-23T05:11:11;101129.88;;;9.79;66.07
70248;BME280;57641;51.416;5.506;2024-03-23T05:13:36;101127.91;;;9.90;66.01
70248;BME280;57641;51.416;5.506;2024-03-23T05:16:02;101131.72;;;9.88;66.32
70248;BME280;57641;51.416;5.506;2024-03-23T05:18:27;101129.28;;;9.94;65.89
70248;BME280;57641;51.416;5.506;2024-03-23T05:20:59;101129.88;;;9.98;65.76
70248;BME280;57641;51.416;5.506;2024-03-23T05:23:25;101126.41;;;9.78;66.59
70248;BME280;57641;51.416;5.506;2024-03-23T05:25:51;101128.22;;;9.78;66.95
70248;BME280;57641;51.416;5.506;2024-03-23T05:28:20;101131.84;;;9.86;66.21
70248;BME280;57641;51.416;5.506;2024-03-23T05:30:53;101129.75;;;9.80;66.47
70248;BME280;57641;51.416;5.506;2024-03-23T05:33:21;101134.38;;;9.78;66.59
70248;BME280;57641;51.416;5.506;2024-03-23T05:35:47;101133.81;;;9.74;66.36
70248;BME280;57641;51.416;5.506;2024-03-23T05:38:21;101127.09;;;9.61;66.84
70248;BME280;57641;51.416;5.506;2024-03-23T05:40:57;101132.13;;;9.45;67.01
70248;BME280;57641;51.416;5.506;2024-03-23T05:43:23;101128.06;;;9.69;65.77
70248;BME280;57641;51.416;5.506;2024-03-23T05:45:55;101128.47;;;9.74;66.09
70248;BME280;57641;51.416;5.506;2024-03-23T05:48:21;101127.91;;;9.52;65.71
70248;BME280;57641;51.416;5.506;2024-03-23T05:50:47;101127.63;;;9.84;65.41
70248;BME280;57641;51.416;5.506;2024-03-23T05:53:13;101125.94;;;9.25;67.71
70248;BME280;57641;51.416;5.506;2024-03-23T05:55:39;101127.91;;;9.42;66.85
70248;BME280;57641;51.416;5.506;2024-03-23T05:58:05;101119.38;;;9.58;66.88
70248;BME280;57641;51.416;5.506;2024-03-23T06:00:30;101115.03;;;9.66;66.81
70248;BME280;57641;51.416;5.506;2024-03-23T06:02:56;101112.94;;;9.60;65.91
70248;BME280;57641;51.416;5.506;2024-03-23T06:05:21;101110.13;;;9.52;66.01
70248;BME280;57641;51.416;5.506;2024-03-23T06:07:46;101115.28;;;9.73;65.28
70248;BME280;57641;51.416;5.506;2024-03-23T06:10:12;101118.41;;;9.78;66.09
70248;BME280;57641;51.416;5.506;2024-03-23T06:12:37;101115.00;;;9.86;65.84
70248;BME280;57641;51.416;5.506;2024-03-23T06:15:03;101121.75;;;9.70;65.26
70248;BME280;57641;51.416;5.506;2024-03-23T06:17:29;101123.72;;;9.68;66.04
70248;BME280;57641;51.416;5.506;2024-03-23T06:19:54;101130.47;;;9.72;66.08
70248;BME280;57641;51.416;5.506;2024-03-23T06:22:19;101135.09;;;9.61;66.19
70248;BME280;57641;51.416;5.506;2024-03-23T06:24:45;101138.00;;;9.87;66.14
70248;BME280;57641;51.416;5.506;2024-03-23T06:27:11;101147.13;;;9.74;65.96
70248;BME280;57641;51.416;5.506;2024-03-23T06:29:36;101146.81;;;9.68;67.01
70248;BME280;57641;51.416;5.506;2024-03-23T06:32:02;101142.22;;;9.80;66.24
70248;BME280;57641;51.416;5.506;2024-03-23T06:34:28;101141.34;;;9.89;67.03
70248;BME280;57641;51.416;5.506;2024-03-23T06:36:54;101143.19;;;9.98;66.50
70248;BME280;57641;51.416;5.506;2024-03-23T06:39:19;101137.13;;;10.05;66.42
70248;BME280;57641;51.416;5.506;2024-03-23T06:41:51;101141.09;;;9.92;65.76
70248;BME280;57641;51.416;5.506;2024-03-23T06:44:18;101142.06;;;9.81;67.04
70248;BME280;57641;51.416;5.506;2024-03-23T06:46:44;101132.66;;;9.96;67.18
70248;BME280;57641;51.416;5.506;2024-03-23T06:49:10;101131.53;;;9.89;66.31
70248;BME280;57641;51.416;5.506;2024-03-23T06:51:35;101135.75;;;10.01;67.69
70248;BME280;57641;51.416;5.506;2024-03-23T06:54:02;101137.84;;;9.98;67.27
70248;BME280;57641;51.416;5.506;2024-03-23T06:56:29;101146.41;;;10.01;66.33
70248;BME280;57641;51.416;5.506;2024-03-23T06:58:54;101140.63;;;10.35;65.41
70248;BME280;57641;51.416;5.506;2024-03-23T07:01:20;101146.97;;;9.95;66.64
70248;BME280;57641;51.416;5.506;2024-03-23T07:03:45;101143.31;;;9.48;66.54
70248;BME280;57641;51.416;5.506;2024-03-23T07:06:10;101151.06;;;9.51;67.01
70248;BME280;57641;51.416;5.506;2024-03-23T07:08:36;101151.75;;;9.82;66.24
70248;BME280;57641;51.416;5.506;2024-03-23T07:11:05;101147.38;;;9.91;66.38
70248;BME280;57641;51.416;5.506;2024-03-23T07:13:30;101146.13;;;9.75;65.95
70248;BME280;57641;51.416;5.506;2024-03-23T07:15:56;101144.44;;;9.84;65.98
70248;BME280;57641;51.416;5.506;2024-03-23T07:18:23;101146.81;;;10.06;65.63
70248;BME280;57641;51.416;5.506;2024-03-23T07:20:55;101153.25;;;10.13;66.77
70248;BME280;57641;51.416;5.506;2024-03-23T07:23:24;101160.59;;;9.83;66.02
70248;BME280;57641;51.416;5.506;2024-03-23T07:28:22;101151.94;;;10.37;66.19
70248;BME280;57641;51.416;5.506;2024-03-23T07:30:47;101154.53;;;10.09;66.74
70248;BME280;57641;51.416;5.506;2024-03-23T07:33:13;101149.69;;;10.42;65.70
70248;BME280;57641;51.416;5.506;2024-03-23T07:35:38;101158.88;;;10.30;65.32
70248;BME280;57641;51.416;5.506;2024-03-23T07:38:04;101158.53;;;10.52;65.39
70248;BME280;57641;51.416;5.506;2024-03-23T07:40:31;101157.56;;;10.43;65.45
70248;BME280;57641;51.416;5.506;2024-03-23T07:42:56;101161.94;;;10.35;65.68
70248;BME280;57641;51.416;5.506;2024-03-23T07:45:22;101159.44;;;10.14;66.22
70248;BME280;57641;51.416;5.506;2024-03-23T07:47:47;101157.47;;;10.26;66.46
70248;BME280;57641;51.416;5.506;2024-03-23T07:50:13;101153.41;;;10.22;66.43
70248;BME280;57641;51.416;5.506;2024-03-23T07:52:38;101149.16;;;10.38;65.20
70248;BME280;57641;51.416;5.506;2024-03-23T07:55:04;101150.91;;;10.20;65.26
70248;BME280;57641;51.416;5.506;2024-03-23T07:57:29;101157.03;;;10.21;64.31
70248;BME280;57641;51.416;5.506;2024-03-23T07:59:55;101154.13;;;9.56;66.25
70248;BME280;57641;51.416;5.506;2024-03-23T08:02:20;101155.50;;;10.08;64.93
70248;BME280;57641;51.416;5.506;2024-03-23T08:04:45;101161.28;;;10.60;64.78
70248;BME280;57641;51.416;5.506;2024-03-23T08:07:11;101156.91;;;10.69;65.02
70248;BME280;57641;51.416;5.506;2024-03-23T08:09:36;101154.91;;;10.80;63.49
70248;BME280;57641;51.416;5.506;2024-03-23T08:12:02;101157.28;;;10.83;63.49
70248;BME280;57641;51.416;5.506;2024-03-23T08:14:28;101154.91;;;10.34;63.26
70248;BME280;57641;51.416;5.506;2024-03-23T08:16:54;101159.28;;;10.06;64.66
70248;BME280;57641;51.416;5.506;2024-03-23T08:19:20;101156.84;;;10.51;63.64
70248;BME280;57641;51.416;5.506;2024-03-23T08:21:45;101148.00;;;10.50;62.36
70248;BME280;57641;51.416;5.506;2024-03-23T08:24:10;101153.19;;;10.52;62.20
70248;BME280;57641;51.416;5.506;2024-03-23T08:26:36;101142.94;;;10.84;62.21
70248;BME280;57641;51.416;5.506;2024-03-23T08:29:03;101148.97;;;11.14;61.58
70248;BME280;57641;51.416;5.506;2024-03-23T08:31:28;101146.81;;;10.99;62.23
70248;BME280;57641;51.416;5.506;2024-03-23T08:33:54;101137.97;;;11.17;61.88
70248;BME280;57641;51.416;5.506;2024-03-23T08:36:19;101142.94;;;11.12;60.86
70248;BME280;57641;51.416;5.506;2024-03-23T08:38:44;101133.00;;;11.31;60.24
70248;BME280;57641;51.416;5.506;2024-03-23T08:41:11;101136.97;;;10.73;59.79
70248;BME280;57641;51.416;5.506;2024-03-23T08:43:38;101130.63;;;11.01;60.27
70248;BME280;57641;51.416;5.506;2024-03-23T08:48:38;101124.75;;;10.70;60.51
70248;BME280;57641;51.416;5.506;2024-03-23T08:51:06;101144.13;;;10.35;59.12
70248;BME280;57641;51.416;5.506;2024-03-23T08:53:32;101140.91;;;10.22;60.22
70248;BME280;57641;51.416;5.506;2024-03-23T08:55:58;101140.69;;;10.52;59.35
70248;BME280;57641;51.416;5.506;2024-03-23T08:58:25;101139.22;;;10.95;59.13
70248;BME280;57641;51.416;5.506;2024-03-23T09:00:52;101133.22;;;10.66;59.86
70248;BME280;57641;51.416;5.506;2024-03-23T09:03:17;101130.25;;;10.96;58.29
70248;BME280;57641;51.416;5.506;2024-03-23T09:05:43;101138.19;;;11.06;57.00
70248;BME280;57641;51.416;5.506;2024-03-23T09:08:08;101143.97;;;11.01;57.91
70248;BME280;57641;51.416;5.506;2024-03-23T09:10:41;101139.47;;;11.01;56.93
70248;BME280;57641;51.416;5.506;2024-03-23T09:13:07;101155.41;;;11.21;59.16
70248;BME280;57641;51.416;5.506;2024-03-23T09:15:34;101164.78;;;11.25;55.86
70248;BME280;57641;51.416;5.506;2024-03-23T09:18:00;101157.38;;;10.91;55.80
70248;BME280;57641;51.416;5.506;2024-03-23T09:20:25;101154.84;;;10.90;55.02
70248;BME280;57641;51.416;5.506;2024-03-23T09:22:51;101151.63;;;10.59;55.59
70248;BME280;57641;51.416;5.506;2024-03-23T09:25:16;101157.25;;;10.56;56.07
70248;BME280;57641;51.416;5.506;2024-03-23T09:27:42;101168.41;;;10.23;58.37
70248;BME280;57641;51.416;5.506;2024-03-23T09:30:08;101161.69;;;10.09;57.25
70248;BME280;57641;51.416;5.506;2024-03-23T09:32:35;101163.22;;;10.02;59.71
70248;BME280;57641;51.416;5.506;2024-03-23T09:35:00;101158.81;;;10.49;58.85
70248;BME280;57641;51.416;5.506;2024-03-23T09:37:26;101164.28;;;10.47;59.02
70248;BME280;57641;51.416;5.506;2024-03-23T09:39:51;101154.38;;;10.11;59.96
70248;BME280;57641;51.416;5.506;2024-03-23T09:42:17;101153.28;;;10.04;61.12
70248;BME280;57641;51.416;5.506;2024-03-23T09:44:42;101156.34;;;9.99;60.58
70248;BME280;57641;51.416;5.506;2024-03-23T09:47:09;101151.16;;;10.07;60.49
70248;BME280;57641;51.416;5.506;2024-03-23T09:49:37;101152.75;;;10.47;59.89
70248;BME280;57641;51.416;5.506;2024-03-23T09:52:03;101155.03;;;10.51;59.99
70248;BME280;57641;51.416;5.506;2024-03-23T09:54:29;101141.38;;;10.91;59.09
70248;BME280;57641;51.416;5.506;2024-03-23T09:56:55;101148.28;;;10.47;60.30
70248;BME280;57641;51.416;5.506;2024-03-23T09:59:20;101151.66;;;10.86;58.50
70248;BME280;57641;51.416;5.506;2024-03-23T10:01:46;101149.06;;;10.94;58.98
70248;BME280;57641;51.416;5.506;2024-03-23T10:04:41;101140.50;;;10.73;58.47
70248;BME280;57641;51.416;5.506;2024-03-23T10:07:15;101145.38;;;10.68;58.23
70248;BME280;57641;51.416;5.506;2024-03-23T10:09:42;101161.84;;;10.64;60.69
70248;BME280;57641;51.416;5.506;2024-03-23T10:12:12;101201.59;;;10.47;61.28
70248;BME280;57641;51.416;5.506;2024-03-23T10:14:41;101147.25;;;9.63;59.53
70248;BME280;57641;51.416;5.506;2024-03-23T10:17:19;101138.25;;;9.26;59.08
70248;BME280;57641;51.416;5.506;2024-03-23T10:19:46;101153.66;;;9.22;59.95
70248;BME280;57641;51.416;5.506;2024-03-23T10:22:25;101150.63;;;8.57;59.46
70248;BME280;57641;51.416;5.506;2024-03-23T10:24:50;101143.44;;;8.78;59.33
70248;BME280;57641;51.416;5.506;2024-03-23T10:27:20;101127.13;;;8.92;59.30
70248;BME280;57641;51.416;5.506;2024-03-23T10:29:46;101130.88;;;9.39;58.76
70248;BME280;57641;51.416;5.506;2024-03-23T10:32:13;101132.56;;;9.50;59.76
70248;BME280;57641;51.416;5.506;2024-03-23T10:34:39;101131.69;;;9.30;60.09
70248;BME280;57641;51.416;5.506;2024-03-23T10:37:05;101133.81;;;9.74;59.60
70248;BME280;57641;51.416;5.506;2024-03-23T10:39:41;101131.69;;;10.16;57.92
70248;BME280;57641;51.416;5.506;2024-03-23T10:42:09;101132.38;;;9.90;56.68
70248;BME280;57641;51.416;5.506;2024-03-23T10:44:40;101129.06;;;10.44;56.45
70248;BME280;57641;51.416;5.506;2024-03-23T10:47:05;101130.72;;;9.98;55.65
70248;BME280;57641;51.416;5.506;2024-03-23T10:49:35;101133.91;;;10.02;56.09
70248;BME280;57641;51.416;5.506;2024-03-23T10:52:04;101130.50;;;10.38;56.62
70248;BME280;57641;51.416;5.506;2024-03-23T10:54:32;101127.75;;;10.57;56.38
70248;BME280;57641;51.416;5.506;2024-03-23T10:57:13;101120.03;;;10.18;56.60
70248;BME280;57641;51.416;5.506;2024-03-23T10:59:40;101114.84;;;10.90;57.17
70248;BME280;57641;51.416;5.506;2024-03-23T11:02:06;101109.78;;;11.14;57.18
70248;BME280;57641;51.416;5.506;2024-03-23T11:04:37;101111.41;;;11.25;56.25
70248;BME280;57641;51.416;5.506;2024-03-23T11:07:34;101106.34;;;11.22;55.88
70248;BME280;57641;51.416;5.506;2024-03-23T11:10:00;101110.41;;;11.43;57.14
70248;BME280;57641;51.416;5.506;2024-03-23T11:12:29;101104.91;;;11.10;55.77
70248;BME280;57641;51.416;5.506;2024-03-23T11:15:04;101114.50;;;10.75;56.36
70248;BME280;57641;51.416;5.506;2024-03-23T11:17:30;101124.84;;;10.51;58.23
70248;BME280;57641;51.416;5.506;2024-03-23T11:25:23;101128.28;;;10.34;57.00
70248;BME280;57641;51.416;5.506;2024-03-23T11:27:51;101120.94;;;10.45;55.70
70248;BME280;57641;51.416;5.506;2024-03-23T11:30:18;101122.00;;;10.62;52.86
70248;BME280;57641;51.416;5.506;2024-03-23T11:32:49;101122.81;;;10.72;53.48
70248;BME280;57641;51.416;5.506;2024-03-23T11:35:37;101116.50;;;10.64;53.59
70248;BME280;57641;51.416;5.506;2024-03-23T11:38:09;101124.44;;;11.28;54.15
70248;BME280;57641;51.416;5.506;2024-03-23T11:40:37;101128.78;;;10.84;52.11
70248;BME280;57641;51.416;5.506;2024-03-23T11:43:08;101122.38;;;10.40;52.48
70248;BME280;57641;51.416;5.506;2024-03-23T11:45:52;101127.63;;;10.59;53.54
70248;BME280;57641;51.416;5.506;2024-03-23T11:48:20;101126.06;;;11.11;53.42
70248;BME280;57641;51.416;5.506;2024-03-23T11:50:47;101133.03;;;11.04;52.38
70248;BME280;57641;51.416;5.506;2024-03-23T11:53:24;101136.75;;;11.11;52.36
70248;BME280;57641;51.416;5.506;2024-03-23T11:58:17;101168.56;;;9.92;54.29
70248;BME280;57641;51.416;5.506;2024-03-23T12:00:58;101171.84;;;9.08;57.71
70248;BME280;57641;51.416;5.506;2024-03-23T12:03:25;101160.00;;;9.41;56.77
70248;BME280;57641;51.416;5.506;2024-03-23T12:05:53;101170.81;;;8.99;58.75
70248;BME280;57641;51.416;5.506;2024-03-23T12:10:51;101174.66;;;8.76;59.36
70248;BME280;57641;51.416;5.506;2024-03-23T12:13:21;101178.00;;;8.78;60.42
70248;BME280;57641;51.416;5.506;2024-03-23T12:15:50;101165.88;;;8.55;61.28
70248;BME280;57641;51.416;5.506;2024-03-23T12:18:17;101159.81;;;8.43;61.76
70248;BME280;57641;51.416;5.506;2024-03-23T12:20:43;101135.59;;;8.67;62.74
70248;BME280;57641;51.416;5.506;2024-03-23T12:23:11;101122.88;;;9.29;63.40
70248;BME280;57641;51.416;5.506;2024-03-23T12:25:38;101125.38;;;9.98;61.96
70248;BME280;57641;51.416;5.506;2024-03-23T12:28:04;101115.00;;;9.95;60.39
70248;BME280;57641;51.416;5.506;2024-03-23T12:30:34;101113.44;;;10.02;59.98
70248;BME280;57641;51.416;5.506;2024-03-23T12:33:00;101110.22;;;10.18;59.77
70248;BME280;57641;51.416;5.506;2024-03-23T12:35:25;101118.59;;;10.70;58.96
70248;BME280;57641;51.416;5.506;2024-03-23T12:37:51;101112.47;;;11.14;56.90
70248;BME280;57641;51.416;5.506;2024-03-23T12:40:16;101098.41;;;10.67;57.84
70248;BME280;57641;51.416;5.506;2024-03-23T12:42:41;101095.50;;;11.06;56.84
70248;BME280;57641;51.416;5.506;2024-03-23T12:45:07;101100.06;;;10.95;55.30
70248;BME280;57641;51.416;5.506;2024-03-23T12:47:33;101089.75;;;11.46;56.36
70248;BME280;57641;51.416;5.506;2024-03-23T12:49:58;101091.47;;;10.74;51.04
70248;BME280;57641;51.416;5.506;2024-03-23T12:52:24;101104.19;;;10.53;51.73
70248;BME280;57641;51.416;5.506;2024-03-23T12:54:55;101091.19;;;10.50;51.14
70248;BME280;57641;51.416;5.506;2024-03-23T12:57:22;101083.81;;;10.34;54.43
70248;BME280;57641;51.416;5.506;2024-03-23T12:59:48;101092.59;;;10.44;53.81
70248;BME280;57641;51.416;5.506;2024-03-23T13:02:17;101097.53;;;10.39;55.15
70248;BME280;57641;51.416;5.506;2024-03-23T13:04:44;101094.13;;;9.91;54.78
70248;BME280;57641;51.416;5.506;2024-03-23T13:07:10;101097.94;;;9.69;51.61
70248;BME280;57641;51.416;5.506;2024-03-23T13:09:35;101092.50;;;10.36;52.81
70248;BME280;57641;51.416;5.506;2024-03-23T13:12:01;101090.25;;;10.41;51.18
70248;BME280;57641;51.416;5.506;2024-03-23T13:14:26;101088.09;;;9.89;52.21
70248;BME280;57641;51.416;5.506;2024-03-23T13:16:52;101089.91;;;10.54;52.19
70248;BME280;57641;51.416;5.506;2024-03-23T13:19:17;101086.66;;;10.60;52.78
70248;BME280;57641;51.416;5.506;2024-03-23T13:21:43;101090.00;;;10.62;52.22
70248;BME280;57641;51.416;5.506;2024-03-23T13:24:08;101091.09;;;11.32;51.75
70248;BME280;57641;51.416;5.506;2024-03-23T13:26:34;101086.00;;;11.38;50.79
70248;BME280;57641;51.416;5.506;2024-03-23T13:28:59;101083.97;;;10.87;51.87
70248;BME280;57641;51.416;5.506;2024-03-23T13:31:25;101079.56;;;10.69;53.29
70248;BME280;57641;51.416;5.506;2024-03-23T13:33:50;101077.00;;;10.49;53.22
70248;BME280;57641;51.416;5.506;2024-03-23T13:36:16;101095.34;;;10.62;53.60
70248;BME280;57641;51.416;5.506;2024-03-23T13:38:41;101083.63;;;10.45;49.51
70248;BME280;57641;51.416;5.506;2024-03-23T13:41:07;101081.25;;;10.42;51.13
70248;BME280;57641;51.416;5.506;2024-03-23T13:43:34;101069.84;;;10.77;50.56
70248;BME280;57641;51.416;5.506;2024-03-23T13:45:59;101064.28;;;10.71;50.48
70248;BME280;57641;51.416;5.506;2024-03-23T13:48:26;101067.84;;;10.62;50.70
70248;BME280;57641;51.416;5.506;2024-03-23T13:51:03;101063.28;;;10.99;49.97
70248;BME280;57641;51.416;5.506;2024-03-23T13:53:29;101071.88;;;10.93;50.48
70248;BME280;57641;51.416;5.506;2024-03-23T13:55:54;101056.25;;;11.16;50.51
70248;BME280;57641;51.416;5.506;2024-03-23T13:58:21;101059.91;;;10.42;55.35
70248;BME280;57641;51.416;5.506;2024-03-23T14:00:46;101061.69;;;10.24;55.44